Data for 07/29/2009

Time Sea-Level Adjusted Pressure Absolute Pressure Temperature Relative Humidity Dew Point   
(mb) (inHg) (mb) (inHg) (C) (F) (%) (C) (F)
00:05 1023 30.21 852 25.16 13.3 55.9 86 11.1 52
00:10 1023 30.21 852 25.16 13.3 55.9 86 11 51.9
00:15 1023 30.21 852 25.16 13.3 56 86 11 51.8
00:20 1023 30.21 852 25.16 13.2 55.8 86 11 51.8
00:25 1023 30.21 852 25.16 13.1 55.6 87 10.9 51.7
00:30 1023 30.21 852 25.16 12.9 55.3 88 11 51.7
00:35 1023 30.21 852 25.16 12.8 55 88 10.8 51.5
00:40 1023 30.21 852 25.16 12.8 55 88 10.8 51.5
00:45 1023 30.21 852 25.16 12.7 54.8 89 10.8 51.5
00:50 1023 30.21 852 25.16 12.4 54.4 89 10.7 51.3
00:55 1023 30.21 852 25.16 12.3 54.2 89 10.7 51.2
01:00 1023 30.21 852 25.16 12.4 54.3 89 10.6 51.1
01:05 1023 30.21 852 25.16 12.4 54.3 89 10.7 51.2
01:10 1023 30.21 852 25.16 12.4 54.3 89 10.6 51.1
01:15 1023 30.21 852 25.16 12.5 54.4 89 10.7 51.2
01:20 1023 30.21 852 25.16 12.4 54.2 89 10.6 51.1
01:25 1023 30.21 852 25.16 12.4 54.3 88 10.5 50.9
01:30 1023 30.21 852 25.16 12.5 54.4 88 10.5 50.9
01:35 1023 30.21 852 25.16 12.5 54.5 87 10.4 50.7
01:40 1023 30.21 852 25.16 12.5 54.5 88 10.5 50.9
01:45 1023 30.21 852 25.16 12.5 54.4 87 10.4 50.8
01:50 1023 30.21 852 25.16 12.4 54.4 87 10.4 50.7
01:55 1023 30.21 852 25.16 12.5 54.5 87 10.4 50.7
02:00 1023 30.21 852 25.16 12.4 54.4 88 10.5 50.9
02:05 1023 30.21 852 25.16 12.2 54 88 10.4 50.6
02:10 1023 30.21 852 25.16 12.2 53.9 89 10.3 50.6
02:15 1023 30.21 852 25.16 12.3 54.1 88 10.3 50.6
02:20 1023 30.21 852 25.16 12.4 54.3 88 10.4 50.7
02:25 1023 30.21 852 25.16 12.4 54.3 88 10.4 50.7
02:30 1023 30.21 852 25.16 12.4 54.3 87 10.4 50.7
02:35 1023 30.21 852 25.16 12.4 54.3 87 10.4 50.7
02:40 1022 30.18 852 25.16 12.4 54.2 88 10.4 50.7
02:45 1022 30.18 852 25.16 12.4 54.3 87 10.4 50.7
02:50 1022 30.18 852 25.16 12.4 54.3 87 10.4 50.7
02:55 1022 30.18 852 25.16 12.4 54.3 87 10.4 50.6
03:00 1022 30.18 852 25.16 12.4 54.2 87 10.3 50.5
03:05 1022 30.18 852 25.16 12.3 54.2 87 10.2 50.4
03:10 1022 30.18 852 25.16 12.4 54.2 86 10.2 50.3
03:15 1022 30.18 852 25.16 12.4 54.3 86 10.2 50.3
03:20 1022 30.18 852 25.16 12.4 54.3 87 10.2 50.4
03:25 1022 30.18 852 25.16 12.3 54.1 87 10.3 50.5
03:30 1022 30.18 852 25.16 12.1 53.8 88 10.2 50.4
03:35 1022 30.18 852 25.16 12.1 53.8 89 10.3 50.6
03:40 1022 30.18 852 25.16 12.1 53.8 89 10.4 50.6
03:45 1022 30.18 852 25.16 12.1 53.7 89 10.3 50.6
03:50 1022 30.18 852 25.16 12.1 53.7 89 10.4 50.7
03:55 1022 30.18 852 25.16 12 53.6 90 10.4 50.8
04:00 1022 30.18 852 25.16 11.9 53.5 90 10.4 50.7
04:05 1022 30.18 852 25.16 12 53.6 90 10.3 50.6
04:10 1022 30.18 852 25.16 12 53.6 89 10.3 50.6
04:15 1022 30.18 852 25.16 12 53.6 90 10.4 50.6
04:20 1022 30.18 852 25.16 12 53.5 90 10.4 50.7
04:25 1023 30.21 852 25.16 11.8 53.2 91 10.3 50.6
04:30 1023 30.21 852 25.16 11.7 53.1 91 10.3 50.5
04:35 1023 30.21 852 25.16 11.8 53.2 90 10.3 50.5
04:40 1023 30.21 852 25.16 11.8 53.2 91 10.3 50.6
04:45 1023 30.21 852 25.16 11.7 53.1 90 10.2 50.3
04:50 1022 30.18 852 25.16 11.8 53.2 90 10.1 50.2
04:55 1022 30.18 852 25.16 11.8 53.2 90 10.2 50.3
05:00 1022 30.18 852 25.16 11.8 53.2 89 10.1 50.1
05:05 1022 30.18 852 25.16 11.9 53.4 88 10 50
05:10 1022 30.18 852 25.16 11.9 53.5 88 9.9 49.9
05:15 1022 30.18 852 25.16 11.6 53 90 10.1 50.1
05:20 1022 30.18 852 25.16 11.4 52.6 90 9.8 49.6
05:25 1022 30.18 852 25.16 11.5 52.7 89 9.8 49.6
05:30 1022 30.18 852 25.16 11.6 52.8 89 9.8 49.6
05:35 1022 30.18 852 25.16 11.5 52.7 88 9.6 49.3
05:40 1022 30.18 852 25.16 11.5 52.7 89 9.7 49.4
05:45 1022 30.18 852 25.16 11.2 52.2 89 9.6 49.2
05:50 1022 30.18 852 25.16 11.2 52.2 90 9.6 49.2
05:55 1022 30.18 852 25.16 11.3 52.3 88 9.4 49
06:00 1022 30.18 852 25.16 11.3 52.4 88 9.4 48.9
06:05 1022 30.18 852 25.16 11.2 52.2 89 9.4 49
06:10 1022 30.18 852 25.16 11.1 51.9 89 9.3 48.7
06:15 1022 30.18 852 25.16 11 51.8 89 9.2 48.6
06:20 1023 30.21 852 25.16 11.1 51.9 88 9.2 48.6
06:25 1023 30.21 852 25.16 11 51.8 89 9.3 48.7
06:30 1022 30.18 852 25.16 10.9 51.6 89 9.2 48.6
06:35 1023 30.21 852 25.16 10.9 51.6 89 9.2 48.6
06:40 1022 30.18 852 25.16 11 51.9 88 9.2 48.5
06:45 1022 30.18 852 25.16 11 51.9 88 9.2 48.5
06:50 1022 30.18 852 25.16 11.1 51.9 88 9.2 48.6
06:55 1023 30.21 852 25.16 11.1 52 88 9.2 48.6
07:00 1023 30.21 852 25.16 11.1 51.9 88 9.2 48.6
07:05 1023 30.21 852 25.16 11.1 52 88 9.2 48.5
07:10 1023 30.21 852 25.16 11.2 52.1 87 9.2 48.5
07:15 1023 30.21 852 25.16 11.3 52.3 87 9.2 48.6
07:20 1023 30.21 852 25.16 11.4 52.4 86 9.2 48.5
07:25 1023 30.21 852 25.16 11.5 52.6 87 9.3 48.8
07:30 1023 30.21 852 25.16 11.5 52.7 86 9.3 48.7
07:35 1023 30.21 852 25.16 11.5 52.7 87 9.4 48.9
07:40 1023 30.21 852 25.16 11.4 52.5 87 9.3 48.7
07:45 1023 30.21 852 25.16 11.4 52.6 87 9.3 48.7
07:50 1023 30.21 852 25.16 11.6 52.9 86 9.4 48.9
07:55 1023 30.21 852 25.16 11.8 53.3 85 9.4 48.9
08:00 1023 30.21 852 25.16 11.7 53 86 9.4 48.9
08:05 1023 30.21 852 25.16 11.7 53.1 85 9.2 48.6
08:10 1023 30.21 852 25.16 11.8 53.3 84 9.3 48.7
08:15 1023 30.21 852 25.16 11.8 53.2 84 9.2 48.5
08:20 1023 30.21 852 25.16 11.8 53.3 82 8.9 48
08:25 1023 30.21 852 25.16 12.2 54 81 9.1 48.4
08:30 1023 30.21 852 25.16 12.4 54.3 80 9.1 48.4
08:35 1023 30.21 852 25.16 12.3 54.2 80 8.9 48.1
08:40 1023 30.21 852 25.16 12.4 54.3 79 8.8 47.8
08:45 1023 30.21 852 25.16 12.5 54.5 78 8.7 47.7
08:50 1023 30.21 852 25.16 12.5 54.5 78 8.7 47.7
08:55 1023 30.21 852 25.16 12.3 54.1 77 8.3 46.9
09:00 1023 30.21 852 25.16 12.4 54.3 78 8.7 47.7
09:05 1023 30.21 852 25.16 12.3 54.1 76 8.3 46.9
09:10 1023 30.21 852 25.16 12.7 54.9 74 8.3 47
09:15 1023 30.21 852 25.16 13.4 56.1 71 8.2 46.7
09:20 1023 30.21 852 25.16 13.9 56.9 67 7.8 46.1
09:25 1023 30.21 852 25.16 14.3 57.7 68 8.6 47.4
09:30 1023 30.21 852 25.16 14.3 57.8 69 8.7 47.6
09:35 1023 30.21 852 25.16 14.7 58.4 66 8.4 47.1
09:40 1023 30.21 852 25.16 14.9 58.7 67 8.9 48
09:45 1023 30.21 852 25.16 14.1 57.4 70 8.7 47.7
09:50 1023 30.21 852 25.16 14 57.3 68 8.2 46.8
09:55 1023 30.21 852 25.16 14.5 58.1 64 7.9 46.1
10:00 1023 30.21 852 25.16 15 59 62 7.8 46
10:05 1023 30.21 852 25.16 15.2 59.4 62 8 46.4
10:10 1023 30.21 852 25.16 15.1 59.2 61 7.7 45.9
10:15 1023 30.21 852 25.16 15.1 59.2 60 7.6 45.6
10:20 1023 30.21 852 25.16 14.8 58.7 61 7.5 45.5
10:25 1023 30.21 852 25.16 14.3 57.8 64 7.6 45.7
10:30 1023 30.21 852 25.16 14.4 57.9 62 7.4 45.2
10:35 1023 30.21 852 25.16 14.8 58.6 60 7.2 45
10:40 1023 30.21 852 25.16 14.6 58.3 62 7.5 45.5
10:45 1023 30.21 852 25.16 14.4 57.9 65 8 46.4
10:50 1023 30.21 852 25.16 12.9 55.2 75 8.5 47.3
10:55 1023 30.21 852 25.16 11.8 53.3 79 8.3 46.9
11:00 1023 30.21 852 25.16 11.7 53.1 79 8.2 46.7
11:05 1023 30.21 853 25.19 11.6 52.9 77 7.7 45.8
11:10 1023 30.21 853 25.19 11.6 52.9 75 7.3 45.2
11:15 1023 30.21 853 25.19 11.7 53 74 7.2 45
11:20 1023 30.21 853 25.19 12.4 54.4 69 6.9 44.4
11:25 1023 30.21 853 25.19 12.9 55.2 66 6.8 44.2
11:30 1023 30.21 853 25.19 12.9 55.3 63 6.2 43.1
11:35 1023 30.21 853 25.19 14 57.3 61 6.7 44
11:40 1023 30.21 853 25.19 14.3 57.7 60 6.7 44
11:45 1023 30.21 853 25.19 13.8 56.9 62 6.8 44.3
11:50 1023 30.21 853 25.19 14.3 57.8 59 6.5 43.7
11:55 1023 30.21 853 25.19 14.5 58.1 61 7.1 44.7
12:00 1023 30.21 853 25.19 15 58.9 57 6.5 43.8
12:05 1023 30.21 853 25.19 15.5 60 57 7.1 44.8
12:10 1023 30.21 853 25.19 15.2 59.4 56 6.6 43.9
12:15 1023 30.21 852 25.16 15.5 60 56 7 44.5
12:20 1023 30.21 852 25.16 15.4 59.7 58 7.2 44.9
12:25 1023 30.21 852 25.16 15.6 60 54 6.4 43.6
12:30 1023 30.21 852 25.16 15.5 60 55 6.7 44
12:35 1023 30.21 852 25.16 16 60.9 52 6.2 43.2
12:40 1023 30.21 852 25.16 17 62.6 50 6.5 43.7
12:45 1023 30.21 852 25.16 17.1 62.7 49 6.4 43.6
12:50 1023 30.21 852 25.16 17.8 64 46 6.3 43.3
12:55 1023 30.21 852 25.16 18.7 65.7 46 6.9 44.4
13:00 1023 30.21 852 25.16 17 62.7 50 6.6 43.9
13:05 1023 30.21 852 25.16 16.9 62.4 49 6.3 43.4
13:10 1023 30.21 852 25.16 17.6 63.7 47 6.2 43.2
13:15 1023 30.21 852 25.16 17.7 63.9 48 6.6 43.9
13:20 1023 30.21 852 25.16 16.8 62.3 48 6 42.7
13:25 1023 30.21 852 25.16 16.9 62.4 48 5.9 42.6
13:30 1023 30.21 852 25.16 17.5 63.6 45 5.7 42.2
13:35 1023 30.21 852 25.16 18.4 65.2 44 6.3 43.3
13:40 1023 30.21 852 25.16 18.4 65.1 40 4.8 40.6
13:45 1023 30.21 852 25.16 17.4 63.4 48 6.3 43.4
13:50 1023 30.21 852 25.16 16.8 62.3 47 5.4 41.7
13:55 1023 30.21 852 25.16 17 62.5 46 5.3 41.5
14:00 1023 30.21 852 25.16 17.3 63.1 43 4.6 40.3
14:05 1023 30.21 852 25.16 17.7 63.8 44 5.3 41.6
14:10 1023 30.21 852 25.16 19.1 66.3 37 4.2 39.6
14:15 1023 30.21 852 25.16 19.2 66.5 41 5.7 42.3
14:20 1023 30.21 852 25.16 17.9 64.2 44 5.5 41.9
14:25 1023 30.21 852 25.16 17.3 63.2 42 4.3 39.8
14:30 1023 30.21 852 25.16 18 64.4 42 4.9 40.9
14:35 1023 30.21 852 25.16 18.3 64.9 41 5.1 41.1
14:40 1023 30.21 852 25.16 18.2 64.7 41 5 41
14:45 1023 30.21 852 25.16 18.3 64.9 42 5.3 41.5
14:50 1023 30.21 852 25.16 18.6 65.5 38 4.2 39.5
14:55 1023 30.21 852 25.16 19.9 67.8 34 3.7 38.6
15:00 1023 30.21 852 25.16 19.5 67 33 2.9 37.2
15:05 1023 30.21 852 25.16 19.3 66.7 36 3.8 38.9
15:10 1023 30.21 852 25.16 19.8 67.7 31 2.3 36.2
15:15 1023 30.21 852 25.16 19.4 67 34 3.3 38
15:20 1023 30.21 852 25.16 19 66.3 35 3.2 37.8
15:25 1023 30.21 852 25.16 18.4 65 36 3 37.4
15:30 1023 30.21 852 25.16 18.3 64.9 37 3.4 38.1
15:35 1023 30.21 852 25.16 18.4 65.1 38 4 39.1
15:40 1023 30.21 852 25.16 18.1 64.7 38 3.6 38.5
15:45 1023 30.21 852 25.16 18.4 65 34 2.6 36.6
15:50 1023 30.21 852 25.16 19.4 67 31 1.9 35.4
15:55 1023 30.21 852 25.16 20.2 68.4 24 -0.8 30.5
16:00 1023 30.21 852 25.16 19.9 67.8 25 -0.5 31.1
16:05 1023 30.21 852 25.16 20.7 69.2 25 0.4 32.7
16:10 1023 30.21 852 25.16 19.8 67.6 26 -0.1 31.8
16:15 1023 30.21 852 25.16 19 66.2 26 -0.7 30.8
16:20 1022 30.18 852 25.16 19.9 67.9 27 0.4 32.7
16:25 1022 30.18 852 25.16 19.8 67.6 27 0.5 32.8
16:30 1022 30.18 852 25.16 20.5 68.9 26 0.3 32.6
16:35 1023 30.21 852 25.16 21.4 70.6 25 0.5 32.9
16:40 1022 30.18 852 25.16 21.5 70.8 24 0.2 32.4
16:45 1022 30.18 852 25.16 21.1 70 26 0.9 33.7
16:50 1022 30.18 852 25.16 21.5 70.7 25 0.7 33.2
16:55 1022 30.18 851 25.13 21.5 70.7 26 1.2 34.1
17:00 1022 30.18 851 25.13 21.6 70.9 24 0.6 33
17:05 1022 30.18 851 25.13 21.1 70 26 0.8 33.5
17:10 1022 30.18 851 25.13 21.1 70 25 0.3 32.6
17:15 1022 30.18 851 25.13 20.6 69 30 2.4 36.3
17:20 1022 30.18 851 25.13 19.9 67.9 29 1.3 34.4
17:25 1022 30.18 851 25.13 19.9 67.9 29 1.5 34.7
17:30 1022 30.18 851 25.13 20.7 69.3 27 1 33.8
17:35 1022 30.18 851 25.13 20.7 69.3 30 2.7 36.8
17:40 1022 30.18 851 25.13 20.4 68.7 30 2.2 35.9
17:45 1022 30.18 851 25.13 20.2 68.4 30 2.2 36
17:50 1022 30.18 851 25.13 20.6 69.1 27 1.2 34.2
17:55 1022 30.18 851 25.13 20.8 69.4 26 0.9 33.5
18:00 1022 30.18 851 25.13 21.4 70.4 27 1.7 35.1
18:05 1022 30.18 851 25.13 21.4 70.6 29 2.9 37.2
18:10 1022 30.18 851 25.13 20.8 69.4 29 2.1 35.8
18:15 1022 30.18 851 25.13 20.8 69.4 27 1.2 34.1
18:20 1022 30.18 851 25.13 20.9 69.7 27 1.2 34.1
18:25 1022 30.18 851 25.13 20.9 69.6 26 0.7 33.2
18:30 1022 30.18 851 25.13 20.5 69 27 1.1 34
18:35 1022 30.18 851 25.13 20.9 69.5 27 1.2 34.1
18:40 1022 30.18 851 25.13 21 69.8 28 1.9 35.4
18:45 1022 30.18 851 25.13 21.2 70.1 27 1.7 35
18:50 1022 30.18 851 25.13 20.5 69 29 1.9 35.5
18:55 1022 30.18 851 25.13 19.9 67.8 30 2.2 35.9
19:00 1022 30.18 851 25.13 18.7 65.6 40 5.1 41.2
19:05 1022 30.18 851 25.13 17.9 64.1 42 4.7 40.5
19:10 1022 30.18 851 25.13 17.8 64 41 4.5 40.1
19:15 1022 30.18 851 25.13 17.7 63.8 42 4.7 40.5
19:20 1022 30.18 851 25.13 17.3 63.2 43 4.8 40.7
19:25 1022 30.18 851 25.13 17.3 63.1 44 5 41
19:30 1022 30.18 851 25.13 17 62.7 46 5.3 41.5
19:35 1022 30.18 851 25.13 17 62.5 45 5 41
19:40 1022 30.18 851 25.13 16.7 62.1 44 4.6 40.2
19:45 1022 30.18 851 25.13 16.6 61.8 45 4.7 40.4
19:50 1022 30.18 851 25.13 16.6 61.8 44 4.4 40
19:55 1022 30.18 851 25.13 16.4 61.4 46 4.7 40.4
20:00 1022 30.18 851 25.13 16.2 61.1 47 5 41
20:05 1022 30.18 851 25.13 16.1 60.9 46 4.5 40.2
20:10 1022 30.18 851 25.13 15.9 60.7 47 4.8 40.6
20:15 1022 30.18 851 25.13 15.8 60.4 47 4.6 40.2
20:20 1022 30.18 851 25.13 15.7 60.3 48 4.8 40.7
20:25 1022 30.18 851 25.13 15.6 60 49 4.9 40.8
20:30 1022 30.18 851 25.13 15.5 59.9 48 4.7 40.4
20:35 1022 30.18 851 25.13 15.4 59.7 49 4.8 40.7
20:40 1022 30.18 851 25.13 15.3 59.5 48 4.5 40.2
20:45 1022 30.18 851 25.13 15.1 59.3 50 5 40.9
20:50 1022 30.18 851 25.13 14.9 58.8 49 4.5 40.1
20:55 1022 30.18 851 25.13 14.8 58.7 50 4.6 40.3
21:00 1022 30.18 851 25.13 14.7 58.4 50 4.3 39.8
21:05 1022 30.18 851 25.13 14.7 58.4 50 4.5 40.1
21:10 1022 30.18 851 25.13 14.6 58.3 50 4.4 39.8
21:15 1022 30.18 851 25.13 14.6 58.2 51 4.5 40.2
21:20 1022 30.18 851 25.13 14.4 58 51 4.6 40.3
21:25 1022 30.18 852 25.16 14.3 57.7 52 4.7 40.4
21:30 1022 30.18 852 25.16 14.2 57.5 52 4.7 40.4
21:35 1022 30.18 852 25.16 14 57.2 55 5.1 41.1
21:40 1022 30.18 852 25.16 13.7 56.6 55 4.8 40.7
21:45 1023 30.21 852 25.16 13.8 56.8 54 4.6 40.3
21:50 1023 30.21 852 25.16 14 57.2 52 4.4 40
21:55 1023 30.21 852 25.16 14 57.2 52 4.4 39.9
22:00 1023 30.21 852 25.16 14 57.2 52 4.5 40.1
22:05 1023 30.21 852 25.16 13.8 56.9 53 4.5 40.1
22:10 1023 30.21 852 25.16 13.7 56.6 54 4.5 40.1
22:15 1023 30.21 852 25.16 13.6 56.5 54 4.6 40.3
22:20 1023 30.21 852 25.16 13.4 56.1 55 4.6 40.3
22:25 1023 30.21 852 25.16 13.2 55.8 56 4.6 40.2
22:30 1023 30.21 852 25.16 13.1 55.6 55 4.3 39.7
22:35 1023 30.21 852 25.16 13.1 55.6 55 4.3 39.8
22:40 1023 30.21 852 25.16 13.1 55.6 54 4.1 39.3
22:45 1023 30.21 852 25.16 13.3 56 53 4.1 39.3
22:50 1023 30.21 852 25.16 13.4 56.2 54 4.3 39.7
22:55 1023 30.21 852 25.16 13.4 56 54 4.3 39.7
23:00 1023 30.21 852 25.16 13.3 55.9 55 4.5 40.1
23:05 1023 30.21 852 25.16 13.2 55.8 55 4.6 40.2
23:10 1023 30.21 852 25.16 13.1 55.5 56 4.6 40.3
23:15 1023 30.21 852 25.16 12.9 55.1 58 4.8 40.6
23:20 1023 30.21 852 25.16 12.6 54.7 58 4.6 40.3
23:25 1023 30.21 852 25.16 12.6 54.7 58 4.6 40.2
23:30 1023 30.21 852 25.16 12.7 54.8 58 4.7 40.4
23:35 1023 30.21 852 25.16 12.6 54.7 58 4.7 40.5
23:40 1022 30.18 852 25.16 12.6 54.7 58 4.7 40.4
23:45 1022 30.18 852 25.16 12.5 54.5 59 4.8 40.6
23:50 1022 30.18 852 25.16 12.4 54.2 60 4.8 40.7
23:55 1022 30.18 852 25.16 12.2 53.9 60 4.8 40.6
24:00 1022 30.18 852 25.16 12.2 53.9 60 4.7 40.5